createdAt,value
2019-03-30T00:01:35.554Z,11
2019-03-30T00:11:42.701Z,10
2019-03-30T00:21:47.978Z,8
2019-03-30T00:31:55.838Z,8
2019-03-30T00:42:01.596Z,10
2019-03-30T00:50:26.888Z,9
2019-03-30T01:00:33.197Z,11
2019-03-30T01:10:39.781Z,9
2019-03-30T01:20:44.968Z,8
2019-03-30T01:30:56.419Z,7
2019-03-30T01:41:04.145Z,7
2019-03-30T01:51:12.040Z,8
2019-03-30T02:01:20.207Z,7
2019-03-30T02:11:27.181Z,6
2019-03-30T02:21:35.254Z,7
2019-03-30T02:31:44.232Z,8
2019-03-30T02:41:53.813Z,8
2019-03-30T02:51:59.960Z,7
2019-03-30T03:02:10.482Z,8
2019-03-30T03:12:17.930Z,6
2019-03-30T03:21:45.241Z,7
2019-03-30T03:31:52.724Z,8
2019-03-30T03:38:20.235Z,7
2019-03-30T03:48:28.139Z,7
2019-03-30T03:58:34.700Z,7
2019-03-30T04:08:43.049Z,5
2019-03-30T04:18:49.424Z,6
2019-03-30T04:28:56.591Z,5
2019-03-30T04:39:03.413Z,8
2019-03-30T04:49:11.106Z,6
2019-03-30T04:59:17.537Z,6
2019-03-30T05:09:25.954Z,6
2019-03-30T05:19:33.106Z,6
2019-03-30T05:22:52.075Z,7
2019-03-30T05:33:39.426Z,6
2019-03-30T05:43:43.129Z,7
2019-03-30T05:52:59.696Z,6
2019-03-30T06:03:07.533Z,8
2019-03-30T06:13:13.623Z,5
2019-03-30T06:23:21.409Z,7
2019-03-30T06:33:27.374Z,5
2019-03-30T06:43:34.061Z,6
2019-03-30T06:53:42.219Z,10
2019-03-30T07:03:49.029Z,6
2019-03-30T07:13:55.586Z,7
2019-03-30T07:24:02.904Z,5
2019-03-30T07:34:10.295Z,7
2019-03-30T07:44:16.161Z,5
2019-03-30T07:54:22.339Z,6
2019-03-30T07:56:45.275Z,5
2019-03-30T07:57:55.444Z,6
2019-03-30T08:01:07.725Z,6
2019-03-30T08:11:15.990Z,4
2019-03-30T08:21:24.259Z,5
2019-03-30T08:31:30.681Z,4
2019-03-30T08:41:36.840Z,10
2019-03-30T08:51:42.555Z,9
2019-03-30T09:01:50.361Z,13
2019-03-30T09:04:16.244Z,23
2019-03-30T09:14:19.106Z,14
2019-03-30T09:24:49.397Z,12
2019-03-30T09:34:56.273Z,12
2019-03-30T09:45:04.749Z,15
2019-03-30T09:55:12.302Z,19
2019-03-30T10:05:16.475Z,20
2019-03-30T10:15:24.474Z,13
2019-03-30T10:20:39.033Z,12
2019-03-30T10:30:45.322Z,11
2019-03-30T10:40:54.729Z,13
2019-03-30T10:51:01.694Z,12
2019-03-30T11:01:10.621Z,14
2019-03-30T11:11:16.484Z,11
2019-03-30T11:21:25.587Z,10
2019-03-30T11:25:41.539Z,12
2019-03-30T11:35:45.320Z,9
2019-03-30T11:45:51.776Z,11
2019-03-30T11:56:00.735Z,10
2019-03-30T12:06:06.361Z,9
2019-03-30T12:16:14.102Z,9
2019-03-30T12:26:22.193Z,11
2019-03-30T12:36:29.269Z,10
2019-03-30T12:46:36.387Z,13
2019-03-30T12:56:43.170Z,12
2019-03-30T13:01:57.941Z,11
2019-03-30T13:12:04.106Z,11
2019-03-30T13:22:31.831Z,9
2019-03-30T13:32:42.062Z,10
2019-03-30T13:42:48.818Z,9
2019-03-30T13:52:56.153Z,10
2019-03-30T14:03:01.715Z,10
2019-03-30T14:13:08.280Z,10
2019-03-30T14:21:26.719Z,10
2019-03-30T14:31:32.955Z,11
2019-03-30T14:41:39.443Z,10
2019-03-30T14:51:00.885Z,10
2019-03-30T14:54:08.010Z,9
2019-03-30T14:55:31.187Z,8
2019-03-30T14:59:46.597Z,8
2019-03-30T15:09:49.234Z,11
2019-03-30T15:19:55.069Z,12
2019-03-30T15:30:06.356Z,10
2019-03-30T15:40:12.551Z,10
2019-03-30T15:50:18.748Z,9
2019-03-30T16:00:24.585Z,9
2019-03-30T16:10:32.106Z,12
2019-03-30T16:20:39.207Z,12
2019-03-30T16:30:45.066Z,12
2019-03-30T16:40:53.901Z,10
2019-03-30T16:51:02.471Z,11
2019-03-30T16:58:17.539Z,17
2019-03-30T17:01:30.400Z,13
2019-03-30T17:11:35.269Z,14
2019-03-30T17:13:46.829Z,15
2019-03-30T17:23:53.554Z,14
2019-03-30T17:33:58.307Z,16
2019-03-30T17:44:03.553Z,17
2019-03-30T17:54:13.102Z,18
2019-03-30T18:04:19.269Z,21
2019-03-30T18:14:25.144Z,25
2019-03-30T18:24:34.061Z,22
2019-03-30T18:34:41.079Z,27
2019-03-30T18:44:50.922Z,27
2019-03-30T18:54:55.495Z,22
2019-03-30T18:59:14.677Z,22
2019-03-30T19:09:20.849Z,39
2019-03-30T19:19:28.080Z,16
2019-03-30T19:29:33.288Z,16
2019-03-30T19:39:44.949Z,20
2019-03-30T19:49:53.945Z,21
2019-03-30T19:53:19.124Z,16
2019-03-30T20:03:26.802Z,10
2019-03-30T20:08:50.931Z,11
2019-03-30T20:19:51.039Z,12
2019-03-30T20:29:58.960Z,15
2019-03-30T20:40:05.879Z,11
2019-03-30T20:50:12.895Z,12
2019-03-30T21:00:19.735Z,11
2019-03-30T21:10:27.596Z,11
2019-03-30T21:20:34.573Z,12
2019-03-30T21:30:41.333Z,10
2019-03-30T21:40:47.784Z,14
2019-03-30T21:50:58.765Z,13
2019-03-30T22:01:06.818Z,18
2019-03-30T22:11:14.107Z,34
2019-03-30T22:21:20.184Z,70
2019-03-30T22:31:25.799Z,92
2019-03-30T22:41:32.040Z,15
2019-03-30T22:51:39.775Z,12
2019-03-30T23:01:45.451Z,12
2019-03-30T23:11:53.199Z,9
2019-03-30T23:16:06.044Z,11
2019-03-30T23:26:10.332Z,12
2019-03-30T23:31:28.104Z,9
2019-03-30T23:41:32.053Z,11
2019-03-30T23:51:39.605Z,11
